sensor_id;sensor_type;location;lat;lon;timestamp;temperature;humidity
5023;DHT22;2530;47.990;7.866;2023-02-11T00:01:46;-0.60;99.90
5023;DHT22;2530;47.990;7.866;2023-02-11T00:04:11;-0.80;99.90
5023;DHT22;2530;47.990;7.866;2023-02-11T00:11:29;-0.90;99.90
5023;DHT22;2530;47.990;7.866;2023-02-11T00:13:56;-0.90;99.90
5023;DHT22;2530;47.990;7.866;2023-02-11T00:16:22;-0.70;99.90
5023;DHT22;2530;47.990;7.866;2023-02-11T00:18:48;-0.40;99.90
5023;DHT22;2530;47.990;7.866;2023-02-11T00:21:17;-1.00;99.90
5023;DHT22;2530;47.990;7.866;2023-02-11T00:23:44;-0.70;99.90
5023;DHT22;2530;47.990;7.866;2023-02-11T00:26:18;0.10;99.90
5023;DHT22;2530;47.990;7.866;2023-02-11T00:28:44;-0.80;99.90
5023;DHT22;2530;47.990;7.866;2023-02-11T00:31:11;-0.70;99.90
5023;DHT22;2530;47.990;7.866;2023-02-11T00:33:36;-0.70;99.90
5023;DHT22;2530;47.990;7.866;2023-02-11T00:36:14;-0.40;99.90
5023;DHT22;2530;47.990;7.866;2023-02-11T00:38:42;-0.60;99.90
5023;DHT22;2530;47.990;7.866;2023-02-11T00:41:08;-0.40;99.90
5023;DHT22;2530;47.990;7.866;2023-02-11T00:43:34;-0.70;99.90
5023;DHT22;2530;47.990;7.866;2023-02-11T00:46:00;-0.70;99.90
5023;DHT22;2530;47.990;7.866;2023-02-11T00:48:26;-0.70;99.90
5023;DHT22;2530;47.990;7.866;2023-02-11T00:50:51;-0.70;99.90
5023;DHT22;2530;47.990;7.866;2023-02-11T00:55:43;0.40;99.90
5023;DHT22;2530;47.990;7.866;2023-02-11T00:58:08;-0.80;99.90
5023;DHT22;2530;47.990;7.866;2023-02-11T01:00:34;-0.20;99.90
5023;DHT22;2530;47.990;7.866;2023-02-11T01:02:59;0.60;99.90
5023;DHT22;2530;47.990;7.866;2023-02-11T01:05:25;-0.70;99.90
5023;DHT22;2530;47.990;7.866;2023-02-11T01:07:50;0.40;99.90
5023;DHT22;2530;47.990;7.866;2023-02-11T01:10:16;-0.60;99.90
5023;DHT22;2530;47.990;7.866;2023-02-11T01:12:42;-1.40;99.90
5023;DHT22;2530;47.990;7.866;2023-02-11T01:15:08;-0.90;99.90
5023;DHT22;2530;47.990;7.866;2023-02-11T01:17:34;-0.70;99.90
5023;DHT22;2530;47.990;7.866;2023-02-11T01:20:05;-0.60;99.90
5023;DHT22;2530;47.990;7.866;2023-02-11T01:22:31;-0.40;99.90
5023;DHT22;2530;47.990;7.866;2023-02-11T01:27:24;-0.90;99.90
5023;DHT22;2530;47.990;7.866;2023-02-11T01:29:50;-0.80;99.90
5023;DHT22;2530;47.990;7.866;2023-02-11T01:32:15;-0.90;99.90
5023;DHT22;2530;47.990;7.866;2023-02-11T01:34:41;-0.90;99.90
5023;DHT22;2530;47.990;7.866;2023-02-11T01:37:06;-1.00;99.90
5023;DHT22;2530;47.990;7.866;2023-02-11T01:39:33;-1.20;99.90
5023;DHT22;2530;47.990;7.866;2023-02-11T01:41:58;-1.00;99.90
5023;DHT22;2530;47.990;7.866;2023-02-11T01:44:36;-1.10;99.90
5023;DHT22;2530;47.990;7.866;2023-02-11T01:47:03;-1.30;99.90
5023;DHT22;2530;47.990;7.866;2023-02-11T01:49:32;-1.10;99.90
5023;DHT22;2530;47.990;7.866;2023-02-11T01:52:13;-0.70;99.90
5023;DHT22;2530;47.990;7.866;2023-02-11T01:54:51;-1.20;99.90
5023;DHT22;2530;47.990;7.866;2023-02-11T01:57:40;-1.40;99.90
5023;DHT22;2530;47.990;7.866;2023-02-11T02:02:55;-1.20;99.90
5023;DHT22;2530;47.990;7.866;2023-02-11T02:05:28;-1.10;99.90
5023;DHT22;2530;47.990;7.866;2023-02-11T02:10:42;-1.70;99.90
5023;DHT22;2530;47.990;7.866;2023-02-11T02:15:36;-1.10;99.90
5023;DHT22;2530;47.990;7.866;2023-02-11T02:24:09;-1.10;99.90
5023;DHT22;2530;47.990;7.866;2023-02-11T02:27:01;-0.70;99.90
5023;DHT22;2530;47.990;7.866;2023-02-11T02:29:54;-0.70;99.90
5023;DHT22;2530;47.990;7.866;2023-02-11T02:35:18;-0.70;99.90
5023;DHT22;2530;47.990;7.866;2023-02-11T02:37:56;-1.30;99.90
5023;DHT22;2530;47.990;7.866;2023-02-11T02:40:35;-0.80;99.90
5023;DHT22;2530;47.990;7.866;2023-02-11T02:43:03;-0.70;99.90
5023;DHT22;2530;47.990;7.866;2023-02-11T02:45:29;-1.30;99.90
5023;DHT22;2530;47.990;7.866;2023-02-11T02:47:54;-1.50;99.90
5023;DHT22;2530;47.990;7.866;2023-02-11T02:50:23;-1.70;99.90
5023;DHT22;2530;47.990;7.866;2023-02-11T02:53:07;-1.40;99.90
5023;DHT22;2530;47.990;7.866;2023-02-11T02:55:43;-1.60;99.90
5023;DHT22;2530;47.990;7.866;2023-02-11T03:03:51;-1.60;99.90
5023;DHT22;2530;47.990;7.866;2023-02-11T03:11:42;-4.00;99.90
5023;DHT22;2530;47.990;7.866;2023-02-11T03:14:10;-1.40;99.90
5023;DHT22;2530;47.990;7.866;2023-02-11T03:16:37;-1.60;99.90
5023;DHT22;2530;47.990;7.866;2023-02-11T03:19:20;-1.40;99.90
5023;DHT22;2530;47.990;7.866;2023-02-11T03:21:48;-1.20;99.90
5023;DHT22;2530;47.990;7.866;2023-02-11T03:24:28;-1.20;99.90
5023;DHT22;2530;47.990;7.866;2023-02-11T03:27:00;-1.10;99.90
5023;DHT22;2530;47.990;7.866;2023-02-11T03:34:39;-1.00;99.90
5023;DHT22;2530;47.990;7.866;2023-02-11T03:39:52;-1.30;99.90
5023;DHT22;2530;47.990;7.866;2023-02-11T03:42:19;-1.30;99.90
5023;DHT22;2530;47.990;7.866;2023-02-11T03:44:51;-1.10;99.90
5023;DHT22;2530;47.990;7.866;2023-02-11T03:47:20;-1.40;99.90
5023;DHT22;2530;47.990;7.866;2023-02-11T03:49:48;-1.30;99.90
5023;DHT22;2530;47.990;7.866;2023-02-11T03:52:17;-1.20;99.90
5023;DHT22;2530;47.990;7.866;2023-02-11T03:54:45;-1.40;99.90
5023;DHT22;2530;47.990;7.866;2023-02-11T03:57:11;-0.70;99.90
5023;DHT22;2530;47.990;7.866;2023-02-11T03:59:57;-1.30;99.90
5023;DHT22;2530;47.990;7.866;2023-02-11T04:02:28;-1.20;99.90
5023;DHT22;2530;47.990;7.866;2023-02-11T04:04:54;-1.10;99.90
5023;DHT22;2530;47.990;7.866;2023-02-11T04:07:20;-0.90;99.90
5023;DHT22;2530;47.990;7.866;2023-02-11T04:09:46;-1.20;99.90
5023;DHT22;2530;47.990;7.866;2023-02-11T04:12:11;-1.20;99.90
5023;DHT22;2530;47.990;7.866;2023-02-11T04:14:37;-1.30;99.90
5023;DHT22;2530;47.990;7.866;2023-02-11T04:17:03;-1.00;99.90
5023;DHT22;2530;47.990;7.866;2023-02-11T04:19:29;-1.20;99.90
5023;DHT22;2530;47.990;7.866;2023-02-11T04:21:55;-0.80;99.90
5023;DHT22;2530;47.990;7.866;2023-02-11T04:24:20;-1.30;99.90
5023;DHT22;2530;47.990;7.866;2023-02-11T04:26:46;-1.20;99.90
5023;DHT22;2530;47.990;7.866;2023-02-11T04:31:37;-1.70;99.90
5023;DHT22;2530;47.990;7.866;2023-02-11T04:34:03;-1.30;99.90
5023;DHT22;2530;47.990;7.866;2023-02-11T04:36:28;-1.10;99.90
5023;DHT22;2530;47.990;7.866;2023-02-11T04:41:20;-1.20;99.90
5023;DHT22;2530;47.990;7.866;2023-02-11T04:43:45;-1.40;99.90
5023;DHT22;2530;47.990;7.866;2023-02-11T04:51:03;-1.50;99.90
5023;DHT22;2530;47.990;7.866;2023-02-11T04:53:28;-1.00;99.90
5023;DHT22;2530;47.990;7.866;2023-02-11T04:55:54;-1.30;99.90
5023;DHT22;2530;47.990;7.866;2023-02-11T05:00:46;-1.10;99.90
5023;DHT22;2530;47.990;7.866;2023-02-11T05:03:12;-1.30;99.90
5023;DHT22;2530;47.990;7.866;2023-02-11T05:05:38;-1.40;99.90
5023;DHT22;2530;47.990;7.866;2023-02-11T05:08:05;-1.30;99.90
5023;DHT22;2530;47.990;7.866;2023-02-11T05:10:31;-1.20;99.90
5023;DHT22;2530;47.990;7.866;2023-02-11T05:12:56;-1.00;99.90
5023;DHT22;2530;47.990;7.866;2023-02-11T05:15:22;-1.20;99.90
5023;DHT22;2530;47.990;7.866;2023-02-11T05:17:47;-1.30;99.90
5023;DHT22;2530;47.990;7.866;2023-02-11T05:20:13;-1.50;99.90
5023;DHT22;2530;47.990;7.866;2023-02-11T05:25:05;-1.30;99.90
5023;DHT22;2530;47.990;7.866;2023-02-11T05:27:30;-0.80;99.90
5023;DHT22;2530;47.990;7.866;2023-02-11T05:29:56;-1.60;99.90
5023;DHT22;2530;47.990;7.866;2023-02-11T05:32:21;-1.60;99.90
5023;DHT22;2530;47.990;7.866;2023-02-11T05:34:47;-1.60;99.90
5023;DHT22;2530;47.990;7.866;2023-02-11T05:37:12;-1.50;99.90
5023;DHT22;2530;47.990;7.866;2023-02-11T05:39:38;-1.60;99.90
5023;DHT22;2530;47.990;7.866;2023-02-11T05:44:29;-1.80;99.90
5023;DHT22;2530;47.990;7.866;2023-02-11T05:46:55;-1.10;99.90
5023;DHT22;2530;47.990;7.866;2023-02-11T05:49:20;-1.80;99.90
5023;DHT22;2530;47.990;7.866;2023-02-11T05:51:46;-1.80;99.90
5023;DHT22;2530;47.990;7.866;2023-02-11T05:54:11;-1.70;99.90
5023;DHT22;2530;47.990;7.866;2023-02-11T05:56:37;-1.50;99.90
5023;DHT22;2530;47.990;7.866;2023-02-11T05:59:03;-1.80;99.90
5023;DHT22;2530;47.990;7.866;2023-02-11T06:01:28;-1.80;99.90
5023;DHT22;2530;47.990;7.866;2023-02-11T06:03:54;-1.90;99.90
5023;DHT22;2530;47.990;7.866;2023-02-11T06:06:20;-1.70;99.90
5023;DHT22;2530;47.990;7.866;2023-02-11T06:08:45;-1.80;99.90
5023;DHT22;2530;47.990;7.866;2023-02-11T06:11:13;-1.60;99.90
5023;DHT22;2530;47.990;7.866;2023-02-11T06:16:05;-1.60;99.90
5023;DHT22;2530;47.990;7.866;2023-02-11T06:18:31;-1.50;99.90
5023;DHT22;2530;47.990;7.866;2023-02-11T06:20:58;-1.60;99.90
5023;DHT22;2530;47.990;7.866;2023-02-11T06:23:23;-1.30;99.90
5023;DHT22;2530;47.990;7.866;2023-02-11T06:25:49;-1.20;99.90
5023;DHT22;2530;47.990;7.866;2023-02-11T06:30:41;-0.90;99.90
5023;DHT22;2530;47.990;7.866;2023-02-11T06:33:06;-0.90;99.90
5023;DHT22;2530;47.990;7.866;2023-02-11T06:35:32;-1.00;99.90
5023;DHT22;2530;47.990;7.866;2023-02-11T06:38:00;-0.50;99.90
5023;DHT22;2530;47.990;7.866;2023-02-11T06:40:26;-0.50;99.90
5023;DHT22;2530;47.990;7.866;2023-02-11T06:42:51;-0.80;99.90
5023;DHT22;2530;47.990;7.866;2023-02-11T06:45:18;-1.00;99.90
5023;DHT22;2530;47.990;7.866;2023-02-11T06:47:44;-0.50;99.90
5023;DHT22;2530;47.990;7.866;2023-02-11T06:50:12;-0.90;99.90
5023;DHT22;2530;47.990;7.866;2023-02-11T06:52:39;-1.10;99.90
5023;DHT22;2530;47.990;7.866;2023-02-11T06:55:05;-1.10;99.90
5023;DHT22;2530;47.990;7.866;2023-02-11T06:57:31;-1.10;99.90
5023;DHT22;2530;47.990;7.866;2023-02-11T07:02:22;-1.20;99.90
5023;DHT22;2530;47.990;7.866;2023-02-11T07:04:48;-1.20;99.90
5023;DHT22;2530;47.990;7.866;2023-02-11T07:07:14;-0.80;99.90
5023;DHT22;2530;47.990;7.866;2023-02-11T07:09:40;-1.20;99.90
5023;DHT22;2530;47.990;7.866;2023-02-11T07:12:06;-1.00;99.90
5023;DHT22;2530;47.990;7.866;2023-02-11T07:14:33;-0.90;99.90
5023;DHT22;2530;47.990;7.866;2023-02-11T07:21:50;-0.80;99.90
5023;DHT22;2530;47.990;7.866;2023-02-11T07:24:16;-0.80;99.90
5023;DHT22;2530;47.990;7.866;2023-02-11T07:26:41;-0.50;99.90
5023;DHT22;2530;47.990;7.866;2023-02-11T07:29:07;-0.60;99.90
5023;DHT22;2530;47.990;7.866;2023-02-11T07:31:33;-0.30;99.90
5023;DHT22;2530;47.990;7.866;2023-02-11T07:34:00;-0.20;99.90
5023;DHT22;2530;47.990;7.866;2023-02-11T07:36:26;0.00;99.90
5023;DHT22;2530;47.990;7.866;2023-02-11T07:38:52;-0.30;99.90
5023;DHT22;2530;47.990;7.866;2023-02-11T07:41:20;0.00;99.90
5023;DHT22;2530;47.990;7.866;2023-02-11T07:43:46;0.10;99.90
5023;DHT22;2530;47.990;7.866;2023-02-11T07:46:20;0.20;99.90
5023;DHT22;2530;47.990;7.866;2023-02-11T07:48:46;0.00;99.90
5023;DHT22;2530;47.990;7.866;2023-02-11T07:51:23;0.20;99.90
5023;DHT22;2530;47.990;7.866;2023-02-11T07:53:49;0.20;99.90
5023;DHT22;2530;47.990;7.866;2023-02-11T07:56:17;0.10;99.90
5023;DHT22;2530;47.990;7.866;2023-02-11T07:58:43;0.80;99.90
5023;DHT22;2530;47.990;7.866;2023-02-11T08:01:12;0.60;99.90
5023;DHT22;2530;47.990;7.866;2023-02-11T08:03:38;0.70;99.90
5023;DHT22;2530;47.990;7.866;2023-02-11T08:06:13;0.70;99.90
5023;DHT22;2530;47.990;7.866;2023-02-11T08:08:39;0.60;99.90
5023;DHT22;2530;47.990;7.866;2023-02-11T08:11:09;0.80;99.90
5023;DHT22;2530;47.990;7.866;2023-02-11T08:13:35;0.80;99.90
5023;DHT22;2530;47.990;7.866;2023-02-11T08:16:01;0.90;99.90
5023;DHT22;2530;47.990;7.866;2023-02-11T08:18:27;0.90;99.90
5023;DHT22;2530;47.990;7.866;2023-02-11T08:20:53;0.60;99.90
5023;DHT22;2530;47.990;7.866;2023-02-11T08:23:19;0.60;99.90
5023;DHT22;2530;47.990;7.866;2023-02-11T08:25:44;1.10;99.90
5023;DHT22;2530;47.990;7.866;2023-02-11T08:28:10;0.90;99.90
5023;DHT22;2530;47.990;7.866;2023-02-11T08:30:35;1.40;99.90
5023;DHT22;2530;47.990;7.866;2023-02-11T08:33:01;1.50;99.90
5023;DHT22;2530;47.990;7.866;2023-02-11T08:35:26;1.40;99.90
5023;DHT22;2530;47.990;7.866;2023-02-11T08:37:52;1.70;99.90
5023;DHT22;2530;47.990;7.866;2023-02-11T08:40:18;1.10;99.90
5023;DHT22;2530;47.990;7.866;2023-02-11T08:42:44;1.50;99.90
5023;DHT22;2530;47.990;7.866;2023-02-11T08:45:10;1.40;99.90
5023;DHT22;2530;47.990;7.866;2023-02-11T08:47:36;0.60;99.90
5023;DHT22;2530;47.990;7.866;2023-02-11T08:50:02;1.60;99.90
5023;DHT22;2530;47.990;7.866;2023-02-11T08:52:28;1.90;99.90
5023;DHT22;2530;47.990;7.866;2023-02-11T08:54:53;1.80;99.90
5023;DHT22;2530;47.990;7.866;2023-02-11T08:57:19;2.20;99.90
5023;DHT22;2530;47.990;7.866;2023-02-11T08:59:45;1.80;99.90
5023;DHT22;2530;47.990;7.866;2023-02-11T09:02:12;2.20;99.90
5023;DHT22;2530;47.990;7.866;2023-02-11T09:04:38;2.00;99.90
5023;DHT22;2530;47.990;7.866;2023-02-11T09:07:04;2.20;99.90
5023;DHT22;2530;47.990;7.866;2023-02-11T09:09:30;1.70;99.90
5023;DHT22;2530;47.990;7.866;2023-02-11T09:11:55;2.20;99.90
5023;DHT22;2530;47.990;7.866;2023-02-11T09:14:23;2.40;99.90
5023;DHT22;2530;47.990;7.866;2023-02-11T09:16:50;2.10;99.90
5023;DHT22;2530;47.990;7.866;2023-02-11T09:19:17;2.70;99.90
5023;DHT22;2530;47.990;7.866;2023-02-11T09:21:43;2.10;99.90
5023;DHT22;2530;47.990;7.866;2023-02-11T09:24:09;2.50;99.90
5023;DHT22;2530;47.990;7.866;2023-02-11T09:26:35;2.20;99.90
5023;DHT22;2530;47.990;7.866;2023-02-11T09:29:02;2.70;99.90
5023;DHT22;2530;47.990;7.866;2023-02-11T09:31:30;2.60;99.90
5023;DHT22;2530;47.990;7.866;2023-02-11T09:33:58;2.70;99.90
5023;DHT22;2530;47.990;7.866;2023-02-11T09:36:35;2.50;99.90
5023;DHT22;2530;47.990;7.866;2023-02-11T09:39:07;2.80;99.90
5023;DHT22;2530;47.990;7.866;2023-02-11T09:41:44;2.90;99.90
5023;DHT22;2530;47.990;7.866;2023-02-11T09:44:25;3.10;99.90
5023;DHT22;2530;47.990;7.866;2023-02-11T09:47:22;3.20;99.90
5023;DHT22;2530;47.990;7.866;2023-02-11T09:49:52;3.40;99.90
5023;DHT22;2530;47.990;7.866;2023-02-11T09:52:38;3.10;99.90
5023;DHT22;2530;47.990;7.866;2023-02-11T09:55:20;3.40;98.50
5023;DHT22;2530;47.990;7.866;2023-02-11T09:57:46;3.40;98.10
5023;DHT22;2530;47.990;7.866;2023-02-11T10:03:18;3.70;95.00
5023;DHT22;2530;47.990;7.866;2023-02-11T10:06:05;3.80;99.50
5023;DHT22;2530;47.990;7.866;2023-02-11T10:14:41;4.40;90.10
5023;DHT22;2530;47.990;7.866;2023-02-11T10:22:31;4.60;91.70
5023;DHT22;2530;47.990;7.866;2023-02-11T10:24:59;4.70;88.70
5023;DHT22;2530;47.990;7.866;2023-02-11T10:27:33;4.60;78.90
5023;DHT22;2530;47.990;7.866;2023-02-11T10:30:05;4.80;86.90
5023;DHT22;2530;47.990;7.866;2023-02-11T10:32:41;4.90;80.00
5023;DHT22;2530;47.990;7.866;2023-02-11T10:35:20;5.10;83.20
5023;DHT22;2530;47.990;7.866;2023-02-11T10:37:47;5.30;67.90
5023;DHT22;2530;47.990;7.866;2023-02-11T10:40:18;6.30;72.30
5023;DHT22;2530;47.990;7.866;2023-02-11T10:42:48;5.40;71.30
5023;DHT22;2530;47.990;7.866;2023-02-11T10:45:44;5.70;77.70
5023;DHT22;2530;47.990;7.866;2023-02-11T10:48:40;5.50;66.50
5023;DHT22;2530;47.990;7.866;2023-02-11T10:53:38;5.40;66.80
5023;DHT22;2530;47.990;7.866;2023-02-11T10:56:05;5.90;63.00
5023;DHT22;2530;47.990;7.866;2023-02-11T10:58:39;5.50;62.50
5023;DHT22;2530;47.990;7.866;2023-02-11T11:01:06;5.80;62.10
5023;DHT22;2530;47.990;7.866;2023-02-11T11:03:38;5.70;61.00
5023;DHT22;2530;47.990;7.866;2023-02-11T11:06:07;5.70;62.50
5023;DHT22;2530;47.990;7.866;2023-02-11T11:11:09;5.80;60.20
5023;DHT22;2530;47.990;7.866;2023-02-11T11:13:38;6.40;59.30
5023;DHT22;2530;47.990;7.866;2023-02-11T11:18:37;6.50;59.90
5023;DHT22;2530;47.990;7.866;2023-02-11T11:26:13;6.90;56.40
5023;DHT22;2530;47.990;7.866;2023-02-11T11:28:49;6.90;55.10
5023;DHT22;2530;47.990;7.866;2023-02-11T11:33:50;7.80;52.80
5023;DHT22;2530;47.990;7.866;2023-02-11T11:36:21;7.60;57.20
5023;DHT22;2530;47.990;7.866;2023-02-11T11:38:53;7.80;53.10
5023;DHT22;2530;47.990;7.866;2023-02-11T11:41:30;9.00;41.10
5023;DHT22;2530;47.990;7.866;2023-02-11T11:44:20;9.30;40.70
5023;DHT22;2530;47.990;7.866;2023-02-11T11:46:42;9.50;33.60
5023;DHT22;2530;47.990;7.866;2023-02-11T11:49:27;9.40;35.30
5023;DHT22;2530;47.990;7.866;2023-02-11T11:54:33;9.60;32.70
5023;DHT22;2530;47.990;7.866;2023-02-11T11:57:03;9.60;42.40
5023;DHT22;2530;47.990;7.866;2023-02-11T11:59:34;10.40;32.40
5023;DHT22;2530;47.990;7.866;2023-02-11T12:15:55;11.00;34.00
5023;DHT22;2530;47.990;7.866;2023-02-11T12:21:32;11.20;22.50
5023;DHT22;2530;47.990;7.866;2023-02-11T12:32:43;12.00;25.40
5023;DHT22;2530;47.990;7.866;2023-02-11T12:35:43;11.40;22.60
5023;DHT22;2530;47.990;7.866;2023-02-11T12:44:24;10.90;22.80
5023;DHT22;2530;47.990;7.866;2023-02-11T12:47:08;12.10;21.30
5023;DHT22;2530;47.990;7.866;2023-02-11T12:52:47;12.20;18.10
5023;DHT22;2530;47.990;7.866;2023-02-11T12:55:24;11.20;22.70
5023;DHT22;2530;47.990;7.866;2023-02-11T12:57:51;11.30;20.50
5023;DHT22;2530;47.990;7.866;2023-02-11T13:00:26;10.90;25.70
5023;DHT22;2530;47.990;7.866;2023-02-11T13:03:05;11.20;20.80
5023;DHT22;2530;47.990;7.866;2023-02-11T13:06:01;10.60;22.60
5023;DHT22;2530;47.990;7.866;2023-02-11T13:08:41;11.30;19.90
5023;DHT22;2530;47.990;7.866;2023-02-11T13:11:23;10.80;21.90
5023;DHT22;2530;47.990;7.866;2023-02-11T13:14:11;11.00;21.20
5023;DHT22;2530;47.990;7.866;2023-02-11T13:16:41;11.70;19.60
5023;DHT22;2530;47.990;7.866;2023-02-11T13:19:37;11.70;21.30
5023;DHT22;2530;47.990;7.866;2023-02-11T13:22:23;12.60;23.40
5023;DHT22;2530;47.990;7.866;2023-02-11T13:25:14;12.30;24.30
5023;DHT22;2530;47.990;7.866;2023-02-11T13:27:56;12.30;21.00
5023;DHT22;2530;47.990;7.866;2023-02-11T13:30:32;12.20;12.50
5023;DHT22;2530;47.990;7.866;2023-02-11T13:38:24;12.40;16.80
5023;DHT22;2530;47.990;7.866;2023-02-11T13:41:04;13.20;21.20
5023;DHT22;2530;47.990;7.866;2023-02-11T13:43:34;13.10;14.40
5023;DHT22;2530;47.990;7.866;2023-02-11T13:46:02;12.50;13.90
5023;DHT22;2530;47.990;7.866;2023-02-11T13:48:30;12.60;15.70
5023;DHT22;2530;47.990;7.866;2023-02-11T13:51:04;13.10;14.20
5023;DHT22;2530;47.990;7.866;2023-02-11T13:53:47;13.30;18.80
5023;DHT22;2530;47.990;7.866;2023-02-11T13:56:35;14.40;11.70
5023;DHT22;2530;47.990;7.866;2023-02-11T14:10:56;12.10;14.00
5023;DHT22;2530;47.990;7.866;2023-02-11T14:24:42;13.00;21.90
5023;DHT22;2530;47.990;7.866;2023-02-11T14:27:16;13.60;21.60
5023;DHT22;2530;47.990;7.866;2023-02-11T14:32:39;13.80;11.80
5023;DHT22;2530;47.990;7.866;2023-02-11T14:40:30;13.90;14.60
5023;DHT22;2530;47.990;7.866;2023-02-11T14:43:11;14.30;11.50
5023;DHT22;2530;47.990;7.866;2023-02-11T14:45:38;12.30;14.80
5023;DHT22;2530;47.990;7.866;2023-02-11T14:48:12;13.10;16.60
5023;DHT22;2530;47.990;7.866;2023-02-11T14:53:15;14.10;16.60
5023;DHT22;2530;47.990;7.866;2023-02-11T14:55:45;12.60;17.30
5023;DHT22;2530;47.990;7.866;2023-02-11T14:58:17;10.90;18.60
5023;DHT22;2530;47.990;7.866;2023-02-11T15:00:57;10.50;20.40
5023;DHT22;2530;47.990;7.866;2023-02-11T15:03:38;10.30;19.50
5023;DHT22;2530;47.990;7.866;2023-02-11T15:08:31;10.00;25.50
5023;DHT22;2530;47.990;7.866;2023-02-11T15:11:00;9.80;27.40
5023;DHT22;2530;47.990;7.866;2023-02-11T15:13:28;9.50;34.80
5023;DHT22;2530;47.990;7.866;2023-02-11T15:16:04;9.30;29.10
5023;DHT22;2530;47.990;7.866;2023-02-11T15:18:39;9.60;27.10
5023;DHT22;2530;47.990;7.866;2023-02-11T15:21:06;9.60;29.10
5023;DHT22;2530;47.990;7.866;2023-02-11T15:23:32;9.50;29.40
5023;DHT22;2530;47.990;7.866;2023-02-11T15:25:58;9.40;29.30
5023;DHT22;2530;47.990;7.866;2023-02-11T15:28:31;9.60;33.70
5023;DHT22;2530;47.990;7.866;2023-02-11T15:31:15;9.40;25.40
5023;DHT22;2530;47.990;7.866;2023-02-11T15:33:41;9.30;25.50
5023;DHT22;2530;47.990;7.866;2023-02-11T15:36:10;9.80;29.10
5023;DHT22;2530;47.990;7.866;2023-02-11T15:38:36;11.00;25.80
5023;DHT22;2530;47.990;7.866;2023-02-11T15:41:03;13.20;27.10
5023;DHT22;2530;47.990;7.866;2023-02-11T15:43:49;13.30;21.10
5023;DHT22;2530;47.990;7.866;2023-02-11T15:46:21;13.30;19.90
5023;DHT22;2530;47.990;7.866;2023-02-11T15:48:52;12.00;22.10
5023;DHT22;2530;47.990;7.866;2023-02-11T15:51:35;9.50;27.60
5023;DHT22;2530;47.990;7.866;2023-02-11T15:54:07;9.40;28.80
5023;DHT22;2530;47.990;7.866;2023-02-11T15:56:42;9.30;32.80
5023;DHT22;2530;47.990;7.866;2023-02-11T15:59:25;10.00;31.30
5023;DHT22;2530;47.990;7.866;2023-02-11T16:01:52;9.00;33.40
5023;DHT22;2530;47.990;7.866;2023-02-11T16:04:21;9.20;40.40
5023;DHT22;2530;47.990;7.866;2023-02-11T16:06:47;8.80;35.40
5023;DHT22;2530;47.990;7.866;2023-02-11T16:16:55;8.50;46.90
5023;DHT22;2530;47.990;7.866;2023-02-11T16:19:23;8.50;47.90
5023;DHT22;2530;47.990;7.866;2023-02-11T16:21:50;8.60;49.50
5023;DHT22;2530;47.990;7.866;2023-02-11T16:24:23;8.50;50.20
5023;DHT22;2530;47.990;7.866;2023-02-11T16:26:52;8.60;53.40
5023;DHT22;2530;47.990;7.866;2023-02-11T16:29:23;8.60;56.70
5023;DHT22;2530;47.990;7.866;2023-02-11T16:31:50;8.00;58.20
5023;DHT22;2530;47.990;7.866;2023-02-11T16:34:22;8.10;54.90
5023;DHT22;2530;47.990;7.866;2023-02-11T16:36:48;7.80;59.30
5023;DHT22;2530;47.990;7.866;2023-02-11T16:39:15;8.10;57.60
5023;DHT22;2530;47.990;7.866;2023-02-11T16:41:42;7.60;62.70
5023;DHT22;2530;47.990;7.866;2023-02-11T16:44:08;7.80;63.70
5023;DHT22;2530;47.990;7.866;2023-02-11T16:46:33;7.30;64.60
5023;DHT22;2530;47.990;7.866;2023-02-11T16:49:11;7.30;83.80
5023;DHT22;2530;47.990;7.866;2023-02-11T16:51:47;6.80;81.00
5023;DHT22;2530;47.990;7.866;2023-02-11T16:54:14;7.00;88.00
5023;DHT22;2530;47.990;7.866;2023-02-11T16:56:40;6.70;80.80
5023;DHT22;2530;47.990;7.866;2023-02-11T16:59:06;6.10;86.40
5023;DHT22;2530;47.990;7.866;2023-02-11T17:01:32;6.10;98.60
5023;DHT22;2530;47.990;7.866;2023-02-11T17:03:58;5.80;99.90
5023;DHT22;2530;47.990;7.866;2023-02-11T17:06:24;5.50;99.90
5023;DHT22;2530;47.990;7.866;2023-02-11T17:08:49;5.30;99.90
5023;DHT22;2530;47.990;7.866;2023-02-11T17:11:15;5.50;99.90
5023;DHT22;2530;47.990;7.866;2023-02-11T17:13:42;5.10;99.90
5023;DHT22;2530;47.990;7.866;2023-02-11T17:16:19;5.20;99.90
5023;DHT22;2530;47.990;7.866;2023-02-11T17:18:46;5.40;99.90
5023;DHT22;2530;47.990;7.866;2023-02-11T17:21:12;4.40;99.90
5023;DHT22;2530;47.990;7.866;2023-02-11T17:23:38;4.90;99.90
5023;DHT22;2530;47.990;7.866;2023-02-11T17:26:04;4.80;99.90
5023;DHT22;2530;47.990;7.866;2023-02-11T17:28:29;4.60;99.90
5023;DHT22;2530;47.990;7.866;2023-02-11T17:30:56;4.70;99.90
5023;DHT22;2530;47.990;7.866;2023-02-11T17:33:22;4.80;99.90
5023;DHT22;2530;47.990;7.866;2023-02-11T17:35:48;4.70;99.90
5023;DHT22;2530;47.990;7.866;2023-02-11T17:38:13;4.50;99.90
5023;DHT22;2530;47.990;7.866;2023-02-11T17:40:39;4.20;99.90
5023;DHT22;2530;47.990;7.866;2023-02-11T17:43:04;4.40;99.90
5023;DHT22;2530;47.990;7.866;2023-02-11T17:45:30;4.30;99.90
5023;DHT22;2530;47.990;7.866;2023-02-11T17:50:21;4.00;99.90
5023;DHT22;2530;47.990;7.866;2023-02-11T17:52:47;3.80;99.90
5023;DHT22;2530;47.990;7.866;2023-02-11T17:55:12;3.70;99.90
5023;DHT22;2530;47.990;7.866;2023-02-11T17:57:38;3.60;99.90
5023;DHT22;2530;47.990;7.866;2023-02-11T18:00:05;4.10;99.90
5023;DHT22;2530;47.990;7.866;2023-02-11T18:04:58;3.40;99.90
5023;DHT22;2530;47.990;7.866;2023-02-11T18:07:24;3.70;99.90
5023;DHT22;2530;47.990;7.866;2023-02-11T18:09:50;3.40;99.90
5023;DHT22;2530;47.990;7.866;2023-02-11T18:12:17;3.70;99.90
5023;DHT22;2530;47.990;7.866;2023-02-11T18:14:50;3.40;99.90
5023;DHT22;2530;47.990;7.866;2023-02-11T18:17:18;3.40;99.90
5023;DHT22;2530;47.990;7.866;2023-02-11T18:19:44;3.40;99.90
5023;DHT22;2530;47.990;7.866;2023-02-11T18:22:10;3.40;99.90
5023;DHT22;2530;47.990;7.866;2023-02-11T18:24:35;3.20;99.90
5023;DHT22;2530;47.990;7.866;2023-02-11T18:27:01;3.30;99.90
5023;DHT22;2530;47.990;7.866;2023-02-11T18:29:26;3.10;99.90
5023;DHT22;2530;47.990;7.866;2023-02-11T18:31:55;3.10;99.90
5023;DHT22;2530;47.990;7.866;2023-02-11T18:34:22;2.90;99.90
5023;DHT22;2530;47.990;7.866;2023-02-11T18:36:47;2.80;99.90
5023;DHT22;2530;47.990;7.866;2023-02-11T18:39:14;2.80;99.90
5023;DHT22;2530;47.990;7.866;2023-02-11T18:41:40;2.80;99.90
5023;DHT22;2530;47.990;7.866;2023-02-11T18:44:08;2.80;99.90
5023;DHT22;2530;47.990;7.866;2023-02-11T18:46:34;2.90;99.90
5023;DHT22;2530;47.990;7.866;2023-02-11T18:48:59;2.90;99.90
5023;DHT22;2530;47.990;7.866;2023-02-11T18:51:25;2.90;99.90
5023;DHT22;2530;47.990;7.866;2023-02-11T18:53:51;3.10;99.90
5023;DHT22;2530;47.990;7.866;2023-02-11T18:56:19;4.30;99.90
5023;DHT22;2530;47.990;7.866;2023-02-11T18:58:45;2.60;99.90
5023;DHT22;2530;47.990;7.866;2023-02-11T19:01:16;2.90;99.90
5023;DHT22;2530;47.990;7.866;2023-02-11T19:03:43;2.50;99.90
5023;DHT22;2530;47.990;7.866;2023-02-11T19:06:17;2.40;99.90
5023;DHT22;2530;47.990;7.866;2023-02-11T19:08:44;2.60;99.90
5023;DHT22;2530;47.990;7.866;2023-02-11T19:11:10;2.70;99.90
5023;DHT22;2530;47.990;7.866;2023-02-11T19:13:36;2.60;99.90
5023;DHT22;2530;47.990;7.866;2023-02-11T19:16:07;2.50;99.90
5023;DHT22;2530;47.990;7.866;2023-02-11T19:18:34;3.10;99.90
5023;DHT22;2530;47.990;7.866;2023-02-11T19:21:04;2.70;99.90
5023;DHT22;2530;47.990;7.866;2023-02-11T19:23:30;2.60;99.90
5023;DHT22;2530;47.990;7.866;2023-02-11T19:25:57;2.90;99.90
5023;DHT22;2530;47.990;7.866;2023-02-11T19:28:27;2.40;99.90
5023;DHT22;2530;47.990;7.866;2023-02-11T19:34:13;3.00;99.90
5023;DHT22;2530;47.990;7.866;2023-02-11T19:36:39;2.40;99.90
5023;DHT22;2530;47.990;7.866;2023-02-11T19:39:05;2.10;99.90
5023;DHT22;2530;47.990;7.866;2023-02-11T19:41:32;2.30;99.90
5023;DHT22;2530;47.990;7.866;2023-02-11T19:43:58;1.80;99.90